TimeEST,TemperatureF,Dew PointF,Humidity,Sea Level PressureIn,VisibilityMPH,Wind Direction,Wind SpeedMPH,Gust SpeedMPH,PrecipitationIn,Events,Conditions,WindDirDegrees,DateUTC
12:15 AM,44.6,23.0,43,29.70,10.0,East,20.7,25.3,N/A,,Overcast,80,2013-02-26 05:15:00
12:35 AM,44.6,23.0,43,29.67,10.0,East,21.9,29.9,N/A,,Mostly Cloudy,80,2013-02-26 05:35:00
12:55 AM,44.6,23.0,43,29.65,10.0,East,21.9,31.1,N/A,,Mostly Cloudy,80,2013-02-26 05:55:00
1:15 AM,44.6,23.0,43,29.65,10.0,East,18.4,25.3,N/A,,Overcast,80,2013-02-26 06:15:00
1:35 AM,44.6,24.8,46,29.64,10.0,East,18.4,26.5,N/A,,Overcast,80,2013-02-26 06:35:00
1:55 AM,44.6,24.8,46,29.62,10.0,East,19.6,-,N/A,,Overcast,80,2013-02-26 06:55:00
2:15 AM,44.6,24.8,46,29.59,10.0,East,18.4,28.8,N/A,,Overcast,80,2013-02-26 07:15:00
2:35 AM,42.8,26.6,53,29.56,10.0,East,17.3,25.3,N/A,,Mostly Cloudy,80,2013-02-26 07:35:00
2:55 AM,42.8,26.6,53,29.55,10.0,East,17.3,26.5,N/A,,Overcast,80,2013-02-26 07:55:00
3:15 AM,42.8,28.4,57,29.53,10.0,East,18.4,27.6,N/A,,Overcast,80,2013-02-26 08:15:00
3:35 AM,42.8,28.4,57,29.50,10.0,ENE,19.6,25.3,N/A,,Mostly Cloudy,70,2013-02-26 08:35:00
3:55 AM,42.8,28.4,57,29.49,10.0,East,19.6,24.2,N/A,,Overcast,80,2013-02-26 08:55:00
4:15 AM,42.8,30.2,61,29.51,10.0,ENE,12.7,21.9,N/A,,Overcast,60,2013-02-26 09:15:00
4:35 AM,42.8,30.2,61,29.52,10.0,East,12.7,16.1,N/A,,Overcast,80,2013-02-26 09:35:00
4:55 AM,42.8,32.0,66,29.51,8.0,East,12.7,19.6,0.04,,Overcast,80,2013-02-26 09:55:00
5:15 AM,39.2,33.8,81,29.49,8.0,ENE,12.7,-,0.10,,Overcast,60,2013-02-26 10:15:00
5:35 AM,39.2,33.8,81,29.52,9.0,NNE,4.6,-,0.19,,Overcast,20,2013-02-26 10:35:00
5:55 AM,39.2,35.6,87,29.50,6.0,ENE,6.9,-,0.25,,Overcast,70,2013-02-26 10:55:00
6:15 AM,39.2,35.6,87,29.48,7.0,ENE,9.2,-,N/A,,Overcast,60,2013-02-26 11:15:00
6:35 AM,39.2,35.6,87,29.48,5.0,ENE,8.1,-,N/A,,Overcast,60,2013-02-26 11:35:00
6:55 AM,39.2,35.6,87,29.46,4.0,ENE,6.9,-,0.01,,Overcast,70,2013-02-26 11:55:00
7:15 AM,39.2,37.4,93,29.46,4.0,ENE,5.8,-,0.03,,Overcast,70,2013-02-26 12:15:00
7:35 AM,39.2,37.4,93,29.46,3.0,ENE,8.1,-,0.07,,Overcast,70,2013-02-26 12:35:00
7:55 AM,39.2,37.4,93,29.46,1.8,ENE,5.8,-,0.09,,Overcast,70,2013-02-26 12:55:00
8:15 AM,41.0,37.4,87,29.45,2.0,East,8.1,-,0.03,,Overcast,80,2013-02-26 13:15:00
8:55 AM,41.0,37.4,87,29.44,1.8,ENE,12.7,-,0.10,,Overcast,70,2013-02-26 13:55:00
9:35 AM,42.8,39.2,87,29.43,5.0,East,12.7,20.7,0.10,,Overcast,90,2013-02-26 14:35:00
9:55 AM,42.8,39.2,87,29.42,4.0,East,15.0,20.7,0.11,,Overcast,90,2013-02-26 14:55:00
10:15 AM,42.8,39.2,87,29.41,2.5,East,12.7,19.6,N/A,,Overcast,90,2013-02-26 15:15:00
10:35 AM,42.8,39.2,87,29.40,3.0,East,13.8,-,0.02,,Overcast,90,2013-02-26 15:35:00
10:55 AM,44.6,41.0,87,29.40,6.0,ESE,10.4,-,0.02,,Overcast,120,2013-02-26 15:55:00
11:35 AM,44.6,42.8,93,29.40,5.0,ESE,12.7,-,N/A,,Overcast,110,2013-02-26 16:35:00
11:55 AM,44.6,42.8,93,29.40,3.0,SE,4.6,-,N/A,,Overcast,130,2013-02-26 16:55:00
12:15 PM,44.6,42.8,93,29.40,8.0,South,5.8,-,N/A,,Overcast,180,2013-02-26 17:15:00
12:35 PM,46.4,42.8,87,29.40,9.0,South,4.6,-,N/A,,Overcast,180,2013-02-26 17:35:00
12:55 PM,46.4,44.6,93,29.40,10.0,South,8.1,-,N/A,,Overcast,190,2013-02-26 17:55:00
1:15 PM,46.4,44.6,93,29.40,10.0,SSW,8.1,-,N/A,,Overcast,210,2013-02-26 18:15:00
1:36 PM,48.2,44.6,87,29.40,10.0,SW,8.1,-,N/A,,Overcast,220,2013-02-26 18:36:00
1:55 PM,46.4,42.8,87,29.39,10.0,SW,8.1,-,N/A,,Overcast,230,2013-02-26 18:55:00
2:15 PM,46.4,42.8,87,29.39,10.0,SW,6.9,-,N/A,,Overcast,220,2013-02-26 19:15:00
2:35 PM,48.2,44.6,87,29.39,10.0,SW,5.8,-,N/A,,Mostly Cloudy,220,2013-02-26 19:35:00
3:16 PM,48.2,42.8,82,29.40,9.0,SW,9.2,-,N/A,,Overcast,220,2013-02-26 20:16:00
3:35 PM,46.4,41.0,81,29.42,9.0,WSW,11.5,16.1,N/A,,Overcast,240,2013-02-26 20:35:00
3:55 PM,46.4,41.0,81,29.42,10.0,SW,10.4,-,N/A,,Mostly Cloudy,220,2013-02-26 20:55:00
4:15 PM,44.6,41.0,87,29.44,5.0,SW,11.5,-,N/A,,Overcast,220,2013-02-26 21:15:00
4:35 PM,44.6,41.0,87,29.43,10.0,SW,10.4,-,N/A,,Overcast,220,2013-02-26 21:35:00
4:55 PM,46.4,41.0,81,29.44,10.0,SW,11.5,-,0.02,,Overcast,230,2013-02-26 21:55:00
5:15 PM,46.4,41.0,81,29.45,10.0,SSW,11.5,-,N/A,,Mostly Cloudy,210,2013-02-26 22:15:00
5:35 PM,46.4,39.2,76,29.46,10.0,SSW,11.5,-,N/A,,Overcast,210,2013-02-26 22:35:00
5:55 PM,44.6,37.4,76,29.47,10.0,SW,15.0,-,N/A,,Overcast,220,2013-02-26 22:55:00
6:15 PM,44.6,37.4,76,29.48,10.0,SSW,11.5,-,N/A,,Overcast,200,2013-02-26 23:15:00
6:35 PM,44.6,39.2,81,29.49,10.0,SSW,11.5,-,N/A,,Overcast,210,2013-02-26 23:35:00
6:55 PM,44.6,37.4,76,29.50,10.0,SW,13.8,19.6,N/A,,Overcast,220,2013-02-26 23:55:00
7:15 PM,44.6,37.4,76,29.51,10.0,SW,10.4,-,N/A,,Overcast,220,2013-02-27 00:15:00
7:35 PM,44.6,37.4,76,29.52,10.0,SW,15.0,20.7,N/A,,Overcast,230,2013-02-27 00:35:00
7:55 PM,42.8,37.4,81,29.53,10.0,SW,20.7,27.6,N/A,,Overcast,220,2013-02-27 00:55:00
8:15 PM,42.8,37.4,81,29.53,10.0,SSW,15.0,18.4,N/A,,Overcast,210,2013-02-27 01:15:00
8:35 PM,42.8,35.6,76,29.54,10.0,SSW,17.3,20.7,N/A,,Overcast,210,2013-02-27 01:35:00
8:55 PM,42.8,35.6,76,29.54,10.0,SSW,16.1,21.9,N/A,,Overcast,210,2013-02-27 01:55:00
9:15 PM,41.0,35.6,81,29.55,10.0,SSW,16.1,20.7,N/A,,Overcast,200,2013-02-27 02:15:00
9:35 PM,41.0,35.6,81,29.56,10.0,SSW,15.0,24.2,N/A,,Overcast,210,2013-02-27 02:35:00
9:55 PM,39.2,35.6,87,29.57,10.0,SSW,11.5,19.6,N/A,,Overcast,200,2013-02-27 02:55:00
10:15 PM,39.2,35.6,87,29.57,10.0,SSW,12.7,-,N/A,,Overcast,210,2013-02-27 03:15:00
10:35 PM,39.2,35.6,87,29.58,10.0,SSW,13.8,-,N/A,,Overcast,210,2013-02-27 03:35:00
10:55 PM,39.2,35.6,87,29.58,10.0,SSW,13.8,-,N/A,,Overcast,210,2013-02-27 03:55:00
11:15 PM,39.2,35.6,87,29.58,10.0,SW,12.7,-,N/A,,Overcast,220,2013-02-27 04:15:00
11:35 PM,39.2,35.6,87,29.58,10.0,SSW,11.5,-,N/A,,Overcast,210,2013-02-27 04:35:00
11:55 PM,39.2,35.6,87,29.59,10.0,SSW,11.5,18.4,N/A,,Overcast,210,2013-02-27 04:55:00